Time;durP1;ratioP1;P1;durP2;ratioP2;P2;SDS_P1;SDS_P2;PMS_P1;PMS_P2;Temp;Humidity;BMP_temperature;BMP_pressure;BME280_temperature;BME280_humidity;BME280_pressure;Samples;Min_cycle;Max_cycle;Signal;HPM_P1;HPM_P2
2023/01/06 00:01:06;;;;;;;9.60;3.15;;;4.90;1.00;;;;;;5071966;28;20232;-82
2023/01/06 00:03:35;;;;;;;10.80;2.67;;;4.90;1.00;;;;;;5070786;28;20303;-82
2023/01/06 00:06:05;;;;;;;10.75;2.53;;;4.90;1.00;;;;;;5072540;28;20233;-82
2023/01/06 00:08:35;;;;;;;8.02;2.35;;;5.00;1.00;;;;;;5075671;28;20240;-83
2023/01/06 00:11:06;;;;;;;9.73;2.80;;;5.00;1.00;;;;;;5072456;28;20335;-81
2023/01/06 00:13:33;;;;;;;8.25;2.47;;;5.00;1.00;;;;;;5071530;28;20233;-82
2023/01/06 00:16:04;;;;;;;7.65;3.03;;;5.10;1.00;;;;;;5075267;28;20216;-82
2023/01/06 00:18:34;;;;;;;8.75;3.20;;;5.20;1.00;;;;;;5068305;28;20292;-82
2023/01/06 00:21:02;;;;;;;8.98;2.97;;;5.30;1.00;;;;;;5073634;28;20272;-82
2023/01/06 00:23:29;;;;;;;9.95;2.50;;;5.40;1.00;;;;;;5069226;28;20693;-81
2023/01/06 00:25:56;;;;;;;7.65;2.90;;;5.50;1.00;;;;;;5072798;28;21006;-82
2023/01/06 00:28:23;;;;;;;8.35;2.88;;;5.50;1.00;;;;;;5070296;28;20302;-82
2023/01/06 00:30:50;;;;;;;10.00;2.45;;;5.50;1.00;;;;;;5070110;28;20244;-82
2023/01/06 00:33:17;;;;;;;8.43;2.70;;;5.40;1.00;;;;;;5069847;28;20244;-81
2023/01/06 00:35:45;;;;;;;8.75;3.03;;;5.40;1.00;;;;;;5071001;28;20239;-81
2023/01/06 00:38:12;;;;;;;9.60;2.20;;;5.50;1.00;;;;;;5071185;28;20268;-81
2023/01/06 00:40:39;;;;;;;9.93;2.63;;;5.50;1.00;;;;;;5068488;28;20240;-80
2023/01/06 00:43:06;;;;;;;8.05;2.85;;;5.50;1.00;;;;;;5070494;28;20229;-81
2023/01/06 00:45:33;;;;;;;9.60;3.30;;;5.50;1.00;;;;;;5070819;28;20289;-81
2023/01/06 00:48:03;;;;;;;9.43;3.13;;;5.50;1.00;;;;;;5072389;28;20693;-81
2023/01/06 00:50:30;;;;;;;10.60;2.80;;;5.40;1.00;;;;;;5068621;28;20239;-80
2023/01/06 00:52:59;;;;;;;8.88;3.40;;;5.40;1.00;;;;;;5073249;28;20623;-80
2023/01/06 00:55:26;;;;;;;11.77;2.90;;;5.50;1.00;;;;;;5068769;28;20247;-81
2023/01/06 00:57:53;;;;;;;9.80;3.30;;;5.50;1.00;;;;;;5072650;28;20274;-81
2023/01/06 01:00:20;;;;;;;9.00;3.30;;;5.50;1.00;;;;;;5073298;28;20261;-80
2023/01/06 01:02:48;;;;;;;9.65;3.05;;;5.40;1.00;;;;;;5072289;28;20245;-81
2023/01/06 01:05:15;;;;;;;9.13;2.95;;;5.30;1.00;;;;;;5070511;28;20300;-81
2023/01/06 01:07:42;;;;;;;12.07;3.65;;;5.30;1.00;;;;;;5072977;28;20240;-81
2023/01/06 01:10:11;;;;;;;10.27;4.47;;;5.30;1.00;;;;;;5071278;28;20267;-81
2023/01/06 01:12:38;;;;;;;8.27;3.42;;;5.20;1.00;;;;;;5069745;28;20325;-81
2023/01/06 01:15:06;;;;;;;11.38;4.45;;;5.10;1.00;;;;;;5073495;28;21628;-81
2023/01/06 01:17:33;;;;;;;12.05;3.72;;;5.10;1.00;;;;;;5069593;28;20247;-81
2023/01/06 01:20:00;;;;;;;7.93;3.60;;;5.20;1.00;;;;;;5074077;28;20342;-81
2023/01/06 01:22:29;;;;;;;9.50;3.95;;;5.20;1.00;;;;;;5070768;28;20215;-81
2023/01/06 01:24:56;;;;;;;10.82;3.70;;;5.20;1.00;;;;;;5073765;28;20242;-80
2023/01/06 01:27:25;;;;;;;10.65;4.05;;;5.20;1.00;;;;;;5073134;28;20224;-80
2023/01/06 01:29:51;;;;;;;9.93;2.92;;;5.20;1.00;;;;;;5071990;28;20237;-80
2023/01/06 01:32:18;;;;;;;11.05;3.80;;;5.30;1.00;;;;;;5073931;28;20252;-81
2023/01/06 01:34:47;;;;;;;8.77;3.08;;;5.30;1.00;;;;;;5071537;28;20292;-81
2023/01/06 01:37:14;;;;;;;10.75;3.38;;;5.30;1.00;;;;;;5072774;28;20245;-81
2023/01/06 01:39:42;;;;;;;8.68;3.22;;;5.20;1.00;;;;;;5076174;28;20270;-81
2023/01/06 01:42:16;;;;;;;8.93;3.22;;;5.10;1.00;;;;;;5067079;28;21005;-81
2023/01/06 01:45:02;;;;;;;9.18;2.97;;;5.20;1.00;;;;;;5076697;28;20332;-81
2023/01/06 01:47:41;;;;;;;9.98;3.83;;;5.20;1.00;;;;;;5068175;28;21031;-81
2023/01/06 01:50:15;;;;;;;10.43;3.40;;;5.30;1.00;;;;;;5072595;28;20240;-80
2023/01/06 01:52:45;;;;;;;7.90;2.92;;;5.30;1.00;;;;;;5069795;28;20245;-80
2023/01/06 01:55:13;;;;;;;8.30;2.60;;;5.30;1.00;;;;;;5073831;28;20261;-80
2023/01/06 01:57:45;;;;;;;8.00;2.75;;;5.30;1.00;;;;;;5072332;28;20256;-80
2023/01/06 02:00:18;;;;;;;9.43;2.90;;;5.40;1.00;;;;;;5076206;28;20245;-81
2023/01/06 02:02:45;;;;;;;8.23;2.97;;;5.40;1.00;;;;;;5072212;28;20325;-80
2023/01/06 02:11:46;;;;;;;6.43;2.30;;;5.40;1.00;;;;;;5115210;27;20238;-92
2023/01/06 02:14:33;;;;;;;6.60;2.00;;;5.40;1.00;;;;;;5137432;27;20222;-90
2023/01/06 02:17:22;;;;;;;8.80;2.10;;;5.40;1.00;;;;;;5135800;27;20235;-89
2023/01/06 02:20:43;;;;;;;7.68;2.25;;;5.30;1.00;;;;;;5145564;27;20206;-88
2023/01/06 02:23:58;;;;;;;8.00;1.90;;;5.40;1.00;;;;;;5134294;27;20234;-91
2023/01/06 02:31:05;;;;;;;8.30;1.80;;;5.60;1.00;;;;;;5049882;28;20829;-91
2023/01/06 02:34:23;;;;;;;;;;;;;;;;;;;;;
2023/01/06 02:37:01;;;;;;;6.85;2.13;;;5.50;1.00;;;;;;5047024;28;52138;-88
2023/01/06 02:39:44;;;;;;;7.55;2.00;;;5.50;1.00;;;;;;5038536;28;20240;-90
2023/01/06 02:42:35;;;;;;;8.43;1.98;;;5.30;1.00;;;;;;5073992;28;20338;-90
2023/01/06 02:45:32;;;;;;;7.35;2.13;;;5.30;1.00;;;;;;5058485;28;20236;-90
2023/01/06 02:48:24;;;;;;;6.85;2.05;;;5.30;1.00;;;;;;5051035;28;20236;-90
2023/01/06 02:51:01;;;;;;;8.43;2.15;;;5.20;1.00;;;;;;5115050;27;20233;-89
2023/01/06 02:53:53;;;;;;;7.32;2.10;;;5.10;1.00;;;;;;5094186;27;20266;-90
2023/01/06 02:56:34;;;;;;;7.25;2.30;;;5.00;1.00;;;;;;5114209;27;20319;-91
2023/01/06 02:59:15;;;;;;;10.93;2.70;;;4.90;1.00;;;;;;5108750;27;20231;-92
2023/01/06 03:02:03;;;;;;;8.57;2.22;;;5.00;1.00;;;;;;5131611;27;20303;-92
2023/01/06 03:04:53;;;;;;;9.27;2.42;;;5.10;1.00;;;;;;5122249;27;20290;-91
2023/01/06 03:07:32;;;;;;;8.88;2.20;;;5.20;1.00;;;;;;5116082;27;20229;-92
2023/01/06 03:10:11;;;;;;;6.68;2.00;;;5.30;1.00;;;;;;5112857;27;21213;-91
2023/01/06 03:13:14;;;;;;;8.40;2.30;;;5.40;1.00;;;;;;5121649;27;20230;-90
2023/01/06 03:15:44;;;;;;;7.40;2.30;;;5.30;1.00;;;;;;5140461;27;20229;-89
2023/01/06 03:18:22;;;;;;;7.15;2.38;;;5.30;1.00;;;;;;5118205;27;20202;-90
2023/01/06 03:21:14;;;;;;;8.73;2.72;;;5.30;1.00;;;;;;5140081;27;20219;-89
2023/01/06 03:23:44;;;;;;;9.38;2.60;;;5.20;1.00;;;;;;5120816;27;20210;-91
2023/01/06 03:26:20;;;;;;;8.40;2.78;;;5.30;1.00;;;;;;5138616;27;21142;-90
2023/01/06 03:28:52;;;;;;;9.25;2.28;;;5.30;1.00;;;;;;5138658;27;20256;-90
2023/01/06 03:31:41;;;;;;;7.68;2.20;;;5.30;1.00;;;;;;5116321;27;20226;-90
2023/01/06 03:34:33;;;;;;;7.35;2.15;;;5.30;1.00;;;;;;5150831;27;20267;-90
2023/01/06 03:37:13;;;;;;;10.25;2.47;;;5.20;1.00;;;;;;5147922;27;20237;-90
2023/01/06 03:39:53;;;;;;;7.63;2.90;;;5.30;1.00;;;;;;5129992;27;20248;-89
2023/01/06 03:46:02;;;;;;;7.80;2.13;;;5.30;1.00;;;;;;5139581;27;20273;-88
2023/01/06 03:49:09;;;;;;;;;;;;;;;;;;;;;
2023/01/06 03:51:56;;;;;;;7.57;2.20;;;5.20;1.00;;;;;;5127301;27;38079;-88
2023/01/06 03:54:43;;;;;;;7.75;2.03;;;5.20;1.00;;;;;;5135681;27;20324;-90
2023/01/06 03:57:42;;;;;;;6.97;1.92;;;5.20;1.00;;;;;;5127453;27;20224;-90
2023/01/06 04:00:35;;;;;;;7.13;2.15;;;5.20;1.00;;;;;;5123612;27;20218;-93
2023/01/06 04:03:14;;;;;;;6.50;1.73;;;5.20;1.00;;;;;;5137598;27;20298;-91
2023/01/06 04:05:53;;;;;;;10.38;2.20;;;5.20;1.00;;;;;;5132937;27;20253;-91
2023/01/06 04:12:37;;;;;;;7.18;1.80;;;5.20;1.00;;;;;;5133313;27;20227;-90
2023/01/06 04:14:06;;;;;;;6.70;1.98;;;5.20;1.00;;;;;;5136467;27;20324;-91
2023/01/06 04:16:43;;;;;;;7.55;2.00;;;5.20;1.00;;;;;;5129273;27;20218;-90
2023/01/06 04:19:18;;;;;;;9.90;1.83;;;5.20;1.00;;;;;;5114759;27;20221;-92
2023/01/06 04:21:54;;;;;;;8.98;2.25;;;5.20;1.00;;;;;;5085413;27;20226;-91
2023/01/06 04:24:34;;;;;;;6.93;1.83;;;5.20;1.00;;;;;;5100765;27;20235;-91
2023/01/06 04:27:03;;;;;;;6.30;1.50;;;5.20;1.00;;;;;;5119706;27;20222;-92
2023/01/06 04:29:34;;;;;;;8.40;2.10;;;5.20;1.00;;;;;;5120998;27;20218;-90
2023/01/06 04:32:05;;;;;;;10.30;2.10;;;5.30;1.00;;;;;;5131192;27;20245;-91
2023/01/06 04:34:35;;;;;;;9.27;2.47;;;5.30;1.00;;;;;;5122771;27;20276;-91
2023/01/06 04:37:14;;;;;;;7.63;1.95;;;5.40;1.00;;;;;;5122664;27;20285;-90
2023/01/06 04:39:45;;;;;;;8.65;1.75;;;5.30;1.00;;;;;;5085638;27;20235;-91
2023/01/06 04:42:15;;;;;;;7.30;1.52;;;5.30;1.00;;;;;;5092752;27;20230;-91
2023/01/06 04:44:56;;;;;;;8.55;1.90;;;5.40;1.00;;;;;;5123335;27;20721;-92
2023/01/06 04:47:26;;;;;;;13.80;2.47;;;5.40;1.00;;;;;;5133187;27;20215;-92
2023/01/06 04:49:54;;;;;;;6.97;1.88;;;5.40;1.00;;;;;;5131938;27;20210;-91
2023/01/06 04:52:39;;;;;;;21.63;10.55;;;5.40;1.00;;;;;;5127939;27;20797;-90
2023/01/06 04:55:23;;;;;;;9.55;2.83;;;5.40;1.00;;;;;;5128856;27;20718;-90
2023/01/06 04:58:05;;;;;;;6.63;1.50;;;5.40;1.00;;;;;;5090503;27;20225;-89
2023/01/06 05:03:55;;;;;;;8.40;1.75;;;5.40;1.00;;;;;;5170553;22;20242;-81
2023/01/06 05:06:26;;;;;;;7.85;2.08;;;5.50;1.00;;;;;;5079973;22;20212;-80
2023/01/06 05:08:53;;;;;;;9.68;2.45;;;5.50;1.00;;;;;;5078815;28;20241;-80
2023/01/06 05:11:28;;;;;;;7.55;1.67;;;5.40;1.00;;;;;;5079735;28;20224;-77
2023/01/06 05:13:55;;;;;;;6.60;2.17;;;5.40;1.00;;;;;;5069689;28;21770;-80
2023/01/06 05:16:27;;;;;;;9.50;2.10;;;5.40;1.00;;;;;;5075253;28;20233;-80
2023/01/06 05:18:57;;;;;;;8.20;2.65;;;5.30;1.00;;;;;;5075520;28;20233;-80
2023/01/06 05:21:28;;;;;;;8.60;1.98;;;5.30;1.00;;;;;;5075108;28;20240;-79
2023/01/06 05:23:55;;;;;;;8.90;1.75;;;5.30;1.00;;;;;;5075905;28;20244;-82
2023/01/06 05:26:25;;;;;;;10.82;2.55;;;5.30;1.00;;;;;;5075176;28;20241;-82
2023/01/06 05:28:53;;;;;;;8.88;2.00;;;5.30;1.00;;;;;;5076382;28;20319;-80
2023/01/06 05:31:24;;;;;;;7.30;1.88;;;5.40;1.00;;;;;;5076896;28;20236;-78
2023/01/06 05:33:51;;;;;;;8.40;2.00;;;5.40;1.00;;;;;;5077272;28;20243;-80
2023/01/06 05:36:25;;;;;;;7.80;2.50;;;5.50;1.00;;;;;;5076507;28;20228;-80
2023/01/06 05:38:52;;;;;;;9.50;1.92;;;5.50;1.00;;;;;;5070300;28;20241;-82
2023/01/06 05:41:32;;;;;;;8.00;2.03;;;5.50;1.00;;;;;;5071490;28;20237;-81
2023/01/06 05:44:03;;;;;;;9.45;2.20;;;5.50;1.00;;;;;;5073989;28;20224;-76
2023/01/06 05:46:30;;;;;;;6.70;1.88;;;5.50;1.00;;;;;;5074442;28;20447;-81
2023/01/06 05:49:03;;;;;;;8.15;2.20;;;5.50;1.00;;;;;;5074238;28;20240;-81
2023/01/06 05:51:32;;;;;;;6.43;1.77;;;5.50;1.00;;;;;;5074108;28;20267;-78
2023/01/06 05:54:07;;;;;;;7.85;2.00;;;5.50;1.00;;;;;;5072691;28;20419;-78
2023/01/06 05:56:36;;;;;;;6.75;1.60;;;5.50;1.00;;;;;;5074602;28;20240;-79
2023/01/06 05:59:11;;;;;;;7.95;2.05;;;5.50;1.00;;;;;;5074698;28;20248;-78
2023/01/06 06:01:43;;;;;;;8.18;2.30;;;5.60;1.00;;;;;;5070394;28;20220;-77
2023/01/06 06:04:12;;;;;;;8.80;2.30;;;5.50;1.00;;;;;;5073655;28;20325;-80
2023/01/06 06:06:45;;;;;;;12.82;3.95;;;5.60;1.00;;;;;;5078888;28;20226;-81
2023/01/06 06:09:12;;;;;;;7.30;2.05;;;5.60;1.00;;;;;;5078821;28;20264;-81
2023/01/06 06:11:43;;;;;;;9.13;2.20;;;5.60;1.00;;;;;;5075981;28;20414;-81
2023/01/06 06:14:11;;;;;;;8.95;2.38;;;5.60;1.00;;;;;;5076760;28;20260;-79
2023/01/06 06:16:42;;;;;;;7.75;2.25;;;5.60;1.00;;;;;;5074523;28;20236;-81
2023/01/06 06:19:12;;;;;;;7.05;2.15;;;5.50;1.00;;;;;;5078138;28;20255;-79
2023/01/06 06:21:46;;;;;;;9.85;2.75;;;5.60;1.00;;;;;;5077446;28;20216;-80
2023/01/06 06:24:13;;;;;;;7.88;2.20;;;5.70;1.00;;;;;;5065542;28;20243;-81
2023/01/06 06:26:46;;;;;;;8.90;3.60;;;5.80;1.00;;;;;;5077952;28;20236;-80
2023/01/06 06:29:13;;;;;;;8.35;2.40;;;5.80;1.00;;;;;;5073594;28;20241;-80
2023/01/06 06:31:46;;;;;;;8.80;2.90;;;5.90;1.00;;;;;;5076156;28;20264;-79
2023/01/06 06:34:13;;;;;;;7.30;2.33;;;5.90;1.00;;;;;;5073578;28;20287;-79
2023/01/06 06:36:44;;;;;;;7.57;1.90;;;5.90;1.00;;;;;;5078950;28;21010;-80
2023/01/06 06:39:13;;;;;;;8.35;2.50;;;5.90;1.00;;;;;;5073679;28;20313;-80
2023/01/06 06:41:44;;;;;;;8.88;2.50;;;5.80;1.00;;;;;;5074263;28;20343;-81
2023/01/06 06:44:11;;;;;;;9.10;3.10;;;5.80;1.00;;;;;;5080097;28;20883;-81
2023/01/06 06:46:47;;;;;;;9.38;3.10;;;5.80;1.00;;;;;;5060696;28;20248;-80
2023/01/06 06:49:15;;;;;;;9.32;2.42;;;5.70;1.00;;;;;;5077446;28;20430;-81
2023/01/06 06:51:47;;;;;;;9.50;2.55;;;5.70;1.00;;;;;;5068159;28;20284;-82
2023/01/06 06:54:22;;;;;;;12.07;2.47;;;5.70;1.00;;;;;;5073729;28;20224;-80
2023/01/06 06:56:49;;;;;;;8.68;3.70;;;5.70;1.00;;;;;;5082632;28;20233;-79
2023/01/06 06:59:20;;;;;;;7.15;2.47;;;5.70;1.00;;;;;;5067003;28;20322;-80
2023/01/06 07:01:49;;;;;;;10.30;3.10;;;5.60;1.00;;;;;;5060753;28;20236;-80
2023/01/06 07:04:16;;;;;;;9.70;2.50;;;5.60;1.00;;;;;;5075337;28;20236;-77
2023/01/06 07:06:44;;;;;;;7.90;2.35;;;5.60;1.00;;;;;;5073676;28;20251;-81
2023/01/06 07:09:11;;;;;;;8.05;2.72;;;5.60;1.00;;;;;;5066613;28;20240;-80
2023/01/06 07:11:44;;;;;;;10.43;3.30;;;5.70;1.00;;;;;;5071007;28;20220;-82
2023/01/06 07:14:11;;;;;;;11.65;3.20;;;5.60;1.00;;;;;;5079930;28;20767;-81
2023/01/06 07:16:42;;;;;;;11.02;3.30;;;5.60;1.00;;;;;;5079723;28;20297;-79
2023/01/06 07:19:11;;;;;;;9.52;3.47;;;5.60;1.00;;;;;;5076208;28;20224;-80
2023/01/06 07:21:43;;;;;;;10.63;3.50;;;5.60;1.00;;;;;;5079273;28;20985;-82
2023/01/06 07:24:11;;;;;;;8.20;3.33;;;5.60;1.00;;;;;;5074780;28;20239;-82
2023/01/06 07:26:44;;;;;;;8.85;3.38;;;5.70;1.00;;;;;;5078648;28;20235;-83
2023/01/06 07:29:11;;;;;;;11.25;4.22;;;5.60;1.00;;;;;;5074463;28;20402;-82
2023/01/06 07:31:43;;;;;;;13.07;4.85;;;5.60;1.00;;;;;;5072755;28;20238;-80
2023/01/06 07:34:12;;;;;;;15.30;5.78;;;5.70;1.00;;;;;;5075737;28;20252;-79
2023/01/06 07:36:42;;;;;;;10.88;5.82;;;5.70;1.00;;;;;;5079129;28;20363;-79
2023/01/06 07:39:09;;;;;;;9.05;4.30;;;5.70;1.00;;;;;;5070270;28;20244;-80
2023/01/06 07:41:36;;;;;;;9.35;4.28;;;5.70;1.00;;;;;;5080287;28;20304;-77
2023/01/06 07:44:05;;;;;;;13.77;4.70;;;5.70;1.00;;;;;;5057770;28;20236;-79
2023/01/06 07:46:32;;;;;;;12.23;4.88;;;5.60;1.00;;;;;;5068833;28;20243;-78
2023/01/06 07:48:59;;;;;;;12.68;4.85;;;5.60;1.00;;;;;;5071256;28;20224;-77
2023/01/06 07:51:27;;;;;;;12.45;4.50;;;5.70;1.00;;;;;;5069768;28;20244;-79
2023/01/06 07:53:54;;;;;;;12.05;4.80;;;5.80;1.00;;;;;;5067289;28;20376;-77
2023/01/06 07:56:24;;;;;;;11.63;4.45;;;5.90;1.00;;;;;;5064158;28;20235;-77
2023/01/06 07:58:53;;;;;;;10.68;4.90;;;5.90;1.00;;;;;;5064282;28;20234;-77
2023/01/06 08:01:29;;;;;;;10.40;4.30;;;5.90;1.00;;;;;;5065728;28;20234;-77
2023/01/06 08:03:56;;;;;;;11.88;5.15;;;6.00;1.00;;;;;;5066951;28;20242;-79
2023/01/06 08:06:26;;;;;;;15.70;5.45;;;6.10;1.00;;;;;;5070151;28;20345;-79
2023/01/06 08:08:53;;;;;;;14.13;5.90;;;6.00;1.00;;;;;;5070484;28;20232;-79
2023/01/06 08:11:23;;;;;;;12.82;5.32;;;6.10;1.00;;;;;;5067888;28;20228;-78
2023/01/06 08:13:50;;;;;;;11.95;5.93;;;6.10;1.00;;;;;;5070484;28;20330;-77
2023/01/06 08:16:17;;;;;;;12.70;5.95;;;6.10;1.00;;;;;;5069487;28;20240;-77
2023/01/06 08:18:46;;;;;;;12.00;6.78;;;6.10;1.00;;;;;;5072752;28;20241;-78
2023/01/06 08:21:13;;;;;;;13.88;5.75;;;6.10;1.00;;;;;;5080406;28;20619;-80
2023/01/06 08:23:44;;;;;;;15.30;6.47;;;6.20;1.00;;;;;;5073783;28;20237;-80
2023/01/06 08:26:14;;;;;;;16.33;6.63;;;6.20;1.00;;;;;;5076121;28;20745;-80
2023/01/06 08:28:46;;;;;;;11.82;5.18;;;6.20;1.00;;;;;;5075530;28;20450;-79
2023/01/06 08:31:15;;;;;;;17.48;6.60;;;6.10;1.00;;;;;;5075272;28;20241;-78
2023/01/06 08:33:46;;;;;;;13.13;6.10;;;6.20;1.00;;;;;;5077395;28;20237;-82
2023/01/06 08:36:14;;;;;;;11.05;6.00;;;6.20;1.00;;;;;;5082196;28;20240;-80
2023/01/06 08:38:45;;;;;;;11.10;6.53;;;6.20;1.00;;;;;;5075728;28;20233;-78
2023/01/06 08:41:12;;;;;;;13.13;7.68;;;6.30;1.00;;;;;;5073001;28;20666;-78
2023/01/06 08:43:45;;;;;;;14.82;7.60;;;6.30;1.00;;;;;;5075507;28;20259;-80
2023/01/06 08:46:16;;;;;;;13.98;7.50;;;6.40;1.00;;;;;;5080591;28;20232;-79
2023/01/06 08:48:46;;;;;;;16.58;6.68;;;6.40;1.00;;;;;;5078251;28;21165;-81
2023/01/06 08:51:16;;;;;;;15.77;7.18;;;6.40;1.00;;;;;;5077843;28;20256;-81
2023/01/06 08:53:46;;;;;;;14.23;7.20;;;6.30;1.00;;;;;;5076805;28;20614;-81
2023/01/06 08:56:15;;;;;;;15.63;7.43;;;6.30;1.00;;;;;;5073090;28;20612;-81
2023/01/06 08:58:44;;;;;;;12.75;6.90;;;6.40;1.00;;;;;;5078086;28;20297;-81
2023/01/06 09:01:25;;;;;;;19.80;8.45;;;6.40;1.00;;;;;;5074646;28;20847;-82
2023/01/06 09:03:54;;;;;;;15.93;8.20;;;6.30;1.00;;;;;;5072716;28;20243;-81
2023/01/06 09:06:28;;;;;;;17.30;8.80;;;6.40;1.00;;;;;;5077715;28;20252;-82
2023/01/06 09:08:56;;;;;;;14.80;8.57;;;6.40;1.00;;;;;;5078063;28;21622;-78
2023/01/06 09:11:25;;;;;;;15.38;8.18;;;6.50;1.00;;;;;;5080945;28;20224;-81
2023/01/06 09:13:52;;;;;;;13.57;8.82;;;6.50;1.00;;;;;;5078477;28;20264;-81
2023/01/06 09:16:24;;;;;;;15.15;7.88;;;6.50;1.00;;;;;;5074144;28;20241;-82
2023/01/06 09:18:51;;;;;;;15.27;8.88;;;6.50;1.00;;;;;;5078505;28;20328;-82
2023/01/06 09:21:25;;;;;;;13.82;8.27;;;6.60;1.00;;;;;;5077643;28;20223;-78
2023/01/06 09:23:52;;;;;;;17.90;9.50;;;6.70;1.00;;;;;;5075952;28;20236;-78
2023/01/06 09:26:24;;;;;;;13.32;9.35;;;6.70;1.00;;;;;;5076498;28;21091;-77
2023/01/06 09:28:51;;;;;;;16.05;9.70;;;6.80;1.00;;;;;;5071466;28;20253;-81
2023/01/06 09:31:23;;;;;;;17.85;9.65;;;6.80;1.00;;;;;;5079635;28;20239;-78
2023/01/06 09:33:50;;;;;;;12.85;9.60;;;6.80;1.00;;;;;;5076135;28;21575;-80
2023/01/06 09:36:24;;;;;;;16.35;9.55;;;6.90;1.00;;;;;;5077699;28;20268;-79
2023/01/06 09:38:51;;;;;;;17.90;10.90;;;7.00;1.00;;;;;;5074850;28;20257;-81
2023/01/06 09:41:55;;;;;;;18.08;9.65;;;7.00;1.00;;;;;;5081536;28;20264;-81
2023/01/06 09:44:28;;;;;;;16.23;10.57;;;7.00;1.00;;;;;;5066780;28;20256;-80
2023/01/06 09:46:57;;;;;;;18.73;12.68;;;7.10;1.00;;;;;;5068398;28;20237;-80
2023/01/06 09:49:31;;;;;;;16.65;10.35;;;7.20;1.00;;;;;;5067002;28;21163;-83
2023/01/06 09:52:04;;;;;;;17.20;10.10;;;7.30;1.00;;;;;;5072145;28;20329;-80
2023/01/06 09:54:34;;;;;;;12.68;9.45;;;7.40;1.00;;;;;;5072016;28;20744;-78
2023/01/06 09:57:05;;;;;;;16.45;10.50;;;7.40;1.00;;;;;;5072239;28;20346;-79
2023/01/06 09:59:38;;;;;;;16.55;10.32;;;7.40;1.00;;;;;;5072392;28;20248;-79
2023/01/06 10:02:13;;;;;;;17.30;11.07;;;7.50;1.00;;;;;;5072474;28;20256;-80
2023/01/06 10:04:42;;;;;;;17.00;10.07;;;7.50;1.00;;;;;;5069459;28;20233;-80
2023/01/06 10:07:19;;;;;;;17.55;11.40;;;7.50;1.00;;;;;;5069240;28;20239;-79
2023/01/06 10:10:00;;;;;;;16.27;10.32;;;7.60;1.00;;;;;;5071181;28;20234;-79
2023/01/06 10:12:41;;;;;;;18.23;11.02;;;7.70;1.00;;;;;;5070688;28;20242;-79
2023/01/06 10:15:19;;;;;;;21.20;10.80;;;7.70;1.00;;;;;;5061810;28;20236;-79
2023/01/06 10:17:58;;;;;;;17.25;11.95;;;7.80;1.00;;;;;;5069586;28;20275;-81
2023/01/06 10:20:45;;;;;;;15.35;11.35;;;7.90;1.00;;;;;;5069841;28;20234;-81
2023/01/06 10:23:35;;;;;;;17.50;11.18;;;7.90;1.00;;;;;;5058716;28;20630;-79
2023/01/06 10:26:11;;;;;;;18.95;9.80;;;8.00;1.00;;;;;;5068552;28;21075;-81
2023/01/06 10:28:46;;;;;;;14.82;10.10;;;8.00;1.00;;;;;;5068875;28;20299;-80
2023/01/06 10:31:17;;;;;;;16.77;9.70;;;8.00;1.00;;;;;;5064116;28;20240;-80
2023/01/06 10:33:50;;;;;;;16.52;10.82;;;8.10;1.00;;;;;;5071124;28;20273;-82
2023/01/06 10:36:26;;;;;;;18.90;11.52;;;8.20;1.00;;;;;;5070044;28;20662;-85
2023/01/06 10:38:59;;;;;;;16.08;11.38;;;8.20;1.00;;;;;;5068339;28;20245;-83
2023/01/06 10:41:40;;;;;;;17.63;10.93;;;8.40;1.00;;;;;;5063938;28;20236;-81
2023/01/06 10:44:11;;;;;;;18.40;10.68;;;8.50;1.00;;;;;;5071850;28;20570;-78
2023/01/06 10:46:40;;;;;;;14.30;10.03;;;8.50;1.00;;;;;;5051575;28;20233;-79
2023/01/06 10:49:15;;;;;;;19.37;10.77;;;8.50;1.00;;;;;;5071882;28;20442;-79
2023/01/06 10:51:47;;;;;;;19.20;10.63;;;8.60;1.00;;;;;;5071514;28;20535;-80
2023/01/06 10:54:23;;;;;;;17.23;11.00;;;8.70;1.00;;;;;;5066241;28;20376;-79
2023/01/06 10:56:55;;;;;;;17.60;11.03;;;8.90;1.00;;;;;;5068769;28;20478;-78
2023/01/06 10:59:22;;;;;;;18.97;12.00;;;9.10;1.00;;;;;;5069150;28;20478;-80
2023/01/06 11:01:51;;;;;;;15.33;9.83;;;9.00;1.00;;;;;;5068322;28;20459;-79
2023/01/06 11:04:18;;;;;;;17.13;9.93;;;9.00;1.00;;;;;;5069603;28;20535;-78
2023/01/06 11:06:49;;;;;;;15.73;10.67;;;9.10;1.00;;;;;;5070842;28;20428;-79
2023/01/06 11:09:27;;;;;;;18.87;11.20;;;9.30;1.00;;;;;;5071475;28;20432;-81
2023/01/06 11:11:56;;;;;;;15.70;10.93;;;9.40;1.00;;;;;;5070565;28;20480;-80
2023/01/06 11:14:26;;;;;;;19.03;12.00;;;9.40;1.00;;;;;;5069179;28;20436;-79
2023/01/06 11:16:57;;;;;;;15.13;10.80;;;9.40;1.00;;;;;;5069729;28;20473;-80
2023/01/06 11:19:34;;;;;;;17.93;12.03;;;9.40;1.00;;;;;;5065236;28;20459;-83
2023/01/06 11:22:02;;;;;;;16.13;10.77;;;9.40;1.00;;;;;;5068747;28;20487;-80
2023/01/06 11:24:31;;;;;;;15.20;10.67;;;9.40;1.00;;;;;;5072869;28;20649;-80
2023/01/06 11:26:59;;;;;;;13.40;9.80;;;9.40;1.00;;;;;;5074503;28;20463;-80
2023/01/06 11:29:32;;;;;;;13.20;9.97;;;9.50;1.00;;;;;;5074669;28;20480;-80
2023/01/06 11:32:03;;;;;;;15.20;9.50;;;9.50;1.00;;;;;;5074186;28;20431;-81
2023/01/06 11:34:31;;;;;;;12.83;9.93;;;9.40;1.00;;;;;;5071677;28;20437;-81
2023/01/06 11:37:02;;;;;;;17.83;10.10;;;9.40;1.00;;;;;;5081719;28;20485;-81
2023/01/06 11:39:34;;;;;;;15.73;11.63;;;9.40;1.00;;;;;;5076342;28;20482;-80
2023/01/06 11:42:10;;;;;;;15.20;10.40;;;9.40;1.00;;;;;;5074804;28;20534;-80
2023/01/06 11:44:40;;;;;;;13.63;8.83;;;9.50;1.00;;;;;;5077967;28;20427;-82
2023/01/06 11:47:15;;;;;;;14.17;9.53;;;9.40;1.00;;;;;;5085329;28;20520;-81
2023/01/06 11:49:51;;;;;;;14.43;7.70;;;9.50;1.00;;;;;;5069881;28;20426;-81
2023/01/06 11:52:23;;;;;;;15.70;8.90;;;9.50;1.00;;;;;;5073686;28;21344;-80
2023/01/06 11:55:02;;;;;;;11.73;7.80;;;9.50;1.00;;;;;;5058399;28;20494;-77
2023/01/06 11:57:36;;;;;;;12.43;7.83;;;9.60;1.00;;;;;;5069188;28;20483;-78
2023/01/06 12:00:32;;;;;;;12.83;8.10;;;9.60;1.00;;;;;;5068400;28;20543;-81
2023/01/06 12:03:07;;;;;;;13.13;8.20;;;9.60;1.00;;;;;;5065709;28;20656;-77
2023/01/06 12:05:43;;;;;;;12.23;8.17;;;9.60;1.00;;;;;;5071640;28;20460;-78
2023/01/06 12:08:15;;;;;;;11.33;6.70;;;9.70;1.00;;;;;;5069601;28;21262;-77
2023/01/06 12:10:47;;;;;;;12.10;7.77;;;9.60;1.00;;;;;;5071377;28;20535;-79
2023/01/06 12:13:14;;;;;;;12.97;7.90;;;9.70;1.00;;;;;;5070906;28;20896;-77
2023/01/06 12:15:44;;;;;;;12.37;7.83;;;9.70;1.00;;;;;;5088756;28;20443;-78
2023/01/06 12:18:16;;;;;;;14.20;8.63;;;9.70;1.00;;;;;;5065730;28;20479;-80
2023/01/06 12:20:48;;;;;;;14.97;9.63;;;9.70;1.00;;;;;;5072900;28;20453;-77
2023/01/06 12:23:22;;;;;;;11.63;7.60;;;9.70;1.00;;;;;;5072375;28;20499;-77
2023/01/06 12:26:01;;;;;;;12.33;7.80;;;9.80;1.00;;;;;;5076012;28;20433;-83
2023/01/06 12:28:33;;;;;;;12.53;8.40;;;9.80;1.00;;;;;;5073650;28;20475;-82
2023/01/06 12:31:06;;;;;;;12.70;7.50;;;9.80;1.00;;;;;;5070472;28;20484;-81
2023/01/06 12:33:35;;;;;;;12.33;8.30;;;9.90;1.00;;;;;;5060741;28;20459;-79
2023/01/06 12:36:12;;;;;;;13.70;7.90;;;9.90;1.00;;;;;;5062211;28;20455;-80
2023/01/06 12:38:50;;;;;;;12.40;7.90;;;9.90;1.00;;;;;;5062525;28;20481;-79
2023/01/06 12:41:26;;;;;;;13.37;8.53;;;10.00;1.00;;;;;;5067289;28;20540;-78
2023/01/06 12:44:00;;;;;;;12.30;7.60;;;10.00;1.00;;;;;;5073402;28;21138;-80
2023/01/06 12:46:33;;;;;;;10.70;6.67;;;10.10;1.00;;;;;;5077310;28;21332;-81
2023/01/06 12:49:04;;;;;;;10.93;6.90;;;10.10;1.00;;;;;;5072968;28;20466;-79
2023/01/06 12:51:41;;;;;;;12.93;7.67;;;10.20;1.00;;;;;;5071337;28;20422;-80
2023/01/06 12:54:16;;;;;;;15.13;7.03;;;10.20;1.00;;;;;;5071621;28;20510;-77
2023/01/06 12:56:57;;;;;;;14.83;7.73;;;10.20;1.00;;;;;;5069838;28;20458;-78
2023/01/06 12:59:35;;;;;;;11.67;7.03;;;10.20;1.00;;;;;;5067455;28;20550;-79
2023/01/06 13:02:19;;;;;;;10.53;6.23;;;10.20;1.00;;;;;;5071306;28;20451;-79
2023/01/06 13:05:09;;;;;;;10.63;6.07;;;10.20;1.00;;;;;;5072551;28;20546;-79
2023/01/06 13:07:47;;;;;;;10.13;5.33;;;10.20;1.00;;;;;;5068486;28;20458;-81
2023/01/06 13:10:26;;;;;;;10.00;5.10;;;10.20;1.00;;;;;;5071660;28;20471;-83
2023/01/06 13:13:21;;;;;;;8.43;4.73;;;10.20;1.00;;;;;;5071306;28;21015;-79
2023/01/06 13:15:48;;;;;;;11.03;5.00;;;10.30;1.00;;;;;;5074164;28;20479;-79
2023/01/06 13:18:21;;;;;;;9.10;5.20;;;10.30;1.00;;;;;;5072551;28;20487;-81
2023/01/06 13:20:51;;;;;;;8.17;4.83;;;10.30;1.00;;;;;;5074131;28;21003;-80
2023/01/06 13:23:33;;;;;;;8.83;4.43;;;10.30;1.00;;;;;;5070768;28;20509;-81
2023/01/06 13:26:23;;;;;;;8.57;4.23;;;10.30;1.00;;;;;;5071022;28;20542;-81
2023/01/06 13:29:02;;;;;;;10.60;4.57;;;10.30;1.00;;;;;;5071582;28;20563;-80
2023/01/06 13:31:42;;;;;;;10.00;4.10;;;10.30;1.00;;;;;;5063756;28;20471;-79
2023/01/06 13:34:40;;;;;;;8.60;3.93;;;10.30;1.00;;;;;;5076747;28;20457;-79
2023/01/06 13:37:32;;;;;;;7.20;3.70;;;10.40;1.00;;;;;;5072165;28;20456;-80
2023/01/06 13:40:04;;;;;;;9.57;4.80;;;10.30;1.00;;;;;;5073019;28;20947;-79
2023/01/06 13:42:39;;;;;;;8.07;3.53;;;10.30;1.00;;;;;;5072467;28;20518;-79
2023/01/06 13:45:17;;;;;;;8.10;3.80;;;10.30;1.00;;;;;;5075419;28;20420;-81
2023/01/06 13:47:46;;;;;;;6.93;2.80;;;10.30;1.00;;;;;;5056899;28;20522;-79
2023/01/06 13:50:16;;;;;;;7.57;3.27;;;10.30;1.00;;;;;;5068616;28;21212;-81
2023/01/06 13:52:44;;;;;;;8.77;3.90;;;10.30;1.00;;;;;;5074362;28;20492;-81
2023/01/06 13:55:29;;;;;;;5.80;2.50;;;10.40;1.00;;;;;;5073614;28;20475;-80
2023/01/06 13:57:57;;;;;;;7.00;2.37;;;10.50;1.00;;;;;;5076689;28;20476;-80